Dan Fighter — OVUE2 — position and weather

sailwx.info

Track history (hours):
 
Tides and Currents Weather Stations Pressure Air Temp Water Temp Dewpoint Dewpoint Depression Visibility Wind Speed Wind Dir Waves Ship Positions

Dan Fighter

Last reported at 2016-Apr-21 00:30 UTC. Time now 2016-Apr-30 15:06 UTC.
Position N 56°05' E 015°59'.
Warning: this ship's position is 9 days out of date.

Length 64 m; draft 3.1 m.

Type: Cargo ship. MMSI: 220386978.

Date/timePositionNaut miles runAvg speedWind from/ knotsBaromVisibWave heightAir tempDewpointWater temp
2016-Apr-21 00:30N 56°05' E 015°59'8 8.8
2016-Apr-20 23:33N 55°58' E 015°50'17 8.4
2016-Apr-20 21:33N 55°48' E 015°26'9 8.5
2016-Apr-20 20:29N 55°43' E 015°13'8 8.5
2016-Apr-20 19:33N 55°38' E 015°02'9 8.8
2016-Apr-20 18:33N 55°33' E 014°49'8 8.4
2016-Apr-20 17:33N 55°26' E 014°40'8 8.4
2016-Apr-20 16:33N 55°19' E 014°31'8 8.2
2016-Apr-20 15:33N 55°13' E 014°22'8 7.9
2016-Apr-20 14:33N 55°10' E 014°09'8 8.5
2016-Apr-20 13:33N 55°11' E 013°54'8 8.5
2016-Apr-20 12:33N 55°12' E 013°40'9 8.6
2016-Apr-20 11:33N 55°13' E 013°25'9 8.7
2016-Apr-20 10:33N 55°14' E 013°09'9 8.8
2016-Apr-20 09:33N 55°15' E 012°54'9 8.7
2016-Apr-20 08:33N 55°18' E 012°40'8 7.9
2016-Apr-20 07:33N 55°26' E 012°40'9 9.0
2016-Apr-20 06:33N 55°35' E 012°42'9 9.3
2016-Apr-20 05:33N 55°44' E 012°41'9 9.0
2016-Apr-20 04:33N 55°53' E 012°39'9 9.4
2016-Apr-20 03:33N 56°02' E 012°38'9 9.1
2016-Apr-20 02:33N 56°09' E 012°28'8 8.3
2016-Apr-20 01:33N 56°16' E 012°20'10 8.3
2016-Apr-20 00:24N 56°25' E 012°12'8 8.7
2016-Apr-19 23:30N 56°32' E 012°05'8 8.4
2016-Apr-19 22:33N 56°39' E 011°60'12 8.9
2016-Apr-19 21:13N 56°50' E 011°52'6 8.5
2016-Apr-19 20:33N 56°54' E 011°45'8 8.4
2016-Apr-19 19:33N 57°02' E 011°37'9 8.5
2016-Apr-19 18:33N 57°09' E 011°29'9 8.9
2016-Apr-19 17:33N 57°17' E 011°22'9 8.7
2016-Apr-19 16:33N 57°24' E 011°14'9 8.6
2016-Apr-19 15:33N 57°31' E 011°04'7 7.0
2016-Apr-19 14:34N 57°35' E 010°53'7 6.8
2016-Apr-19 13:33N 57°41' E 010°48'8 8.5
2016-Apr-19 12:33N 57°47' E 010°37'1010.0
2016-Apr-19 11:33N 57°47' E 010°18'97 8.5
2016-Apr-19 00:10N 57°55' E 007°16'5 8.4
2016-Apr-18 23:33N 57°56' E 007°07'8 7.8
2016-Apr-18 22:33N 57°57' E 006°52'7 7.3
2016-Apr-18 21:33N 58°00' E 006°40'8 7.7
2016-Apr-18 20:33N 58°04' E 006°27'8 8.5
2016-Apr-18 19:33N 58°10' E 006°16'8 8.0
2016-Apr-18 18:33N 58°16' E 006°06'8 7.6
2016-Apr-18 17:33N 58°22' E 005°56'9 7.4
2016-Apr-18 16:18N 58°28' E 005°44'6 7.6
2016-Apr-18 15:33N 58°33' E 005°38'8 8.1
2016-Apr-18 14:33N 58°40' E 005°30'7 7.1
2016-Apr-18 13:33N 58°47' E 005°26'7 6.7
2016-Apr-18 12:33N 58°53' E 005°31'8 8.3
2016-Apr-18 11:33N 59°01' E 005°33'8 8.0
2016-Apr-18 10:33N 59°08' E 005°24'8 7.9
2016-Apr-18 09:33N 59°16' E 005°20'17 8.5
2016-Apr-18 07:30N 59°33' E 005°12'1313.5
2016-Apr-18 06:33N 59°43' E 005°27'6 6.1
2016-Apr-18 05:33N 59°48' E 005°33'6 5.9
2016-Apr-18 04:31N 59°54' E 005°31'236 6.2
2016-Apr-16 14:29N 63°29' E 008°60'7 7.9
2016-Apr-16 13:33N 63°32' E 009°14'8 7.9
2016-Apr-16 12:33N 63°40' E 009°16'72 7.9
2016-Apr-16 03:26N 64°40' E 010°47'7 8.3
2016-Apr-16 02:33N 64°45' E 010°60'9 8.7
2016-Apr-16 01:33N 64°51' E 011°13'8 8.4
2016-Apr-16 00:33N 64°57' E 011°28'9 8.5
2016-Apr-15 23:33N 65°02' E 011°43'9 8.7
2016-Apr-15 22:33N 65°10' E 011°51'9 8.5
2016-Apr-15 21:33N 65°18' E 011°59'48 7.7
2016-Apr-15 15:17N 66°04' E 012°38'  
2016-Apr-11 22:20N 65°20' E 012°01'6 8.3
2016-Apr-11 21:33N 65°14' E 011°55'8 8.3
2016-Apr-11 20:34N 65°06' E 011°49'8 8.1
2016-Apr-11 19:33N 64°60' E 011°37'8 7.9
2016-Apr-11 18:34N 64°55' E 011°23'7 7.3
2016-Apr-11 17:33N 64°50' E 011°10'  
Track history (hours):
 
Tides and Currents Weather Stations Pressure Air Temp Water Temp Dewpoint Dewpoint Depression Visibility Wind Speed Wind Dir Waves Ship Positions

Dan Fighter

Last reported at 2016-Apr-21 00:30 UTC. Time now 2016-Apr-30 15:06 UTC.
Position N 56°05' E 015°59'.
Warning: this ship's position is 9 days out of date.

Length 64 m; draft 3.1 m.

Type: Cargo ship. MMSI: 220386978.

Date/timePositionNaut miles runAvg speedWind from/ knotsBaromVisibWave heightAir tempDewpointWater temp
2016-Apr-21 00:30N 56°05' E 015°59'8 8.8
2016-Apr-20 23:33N 55°58' E 015°50'17 8.4
2016-Apr-20 21:33N 55°48' E 015°26'9 8.5
2016-Apr-20 20:29N 55°43' E 015°13'8 8.5
2016-Apr-20 19:33N 55°38' E 015°02'9 8.8
2016-Apr-20 18:33N 55°33' E 014°49'8 8.4
2016-Apr-20 17:33N 55°26' E 014°40'8 8.4
2016-Apr-20 16:33N 55°19' E 014°31'8 8.2
2016-Apr-20 15:33N 55°13' E 014°22'8 7.9
2016-Apr-20 14:33N 55°10' E 014°09'8 8.5
2016-Apr-20 13:33N 55°11' E 013°54'8 8.5
2016-Apr-20 12:33N 55°12' E 013°40'9 8.6
2016-Apr-20 11:33N 55°13' E 013°25'9 8.7
2016-Apr-20 10:33N 55°14' E 013°09'9 8.8
2016-Apr-20 09:33N 55°15' E 012°54'9 8.7
2016-Apr-20 08:33N 55°18' E 012°40'8 7.9
2016-Apr-20 07:33N 55°26' E 012°40'9 9.0
2016-Apr-20 06:33N 55°35' E 012°42'9 9.3
2016-Apr-20 05:33N 55°44' E 012°41'9 9.0
2016-Apr-20 04:33N 55°53' E 012°39'9 9.4
2016-Apr-20 03:33N 56°02' E 012°38'9 9.1
2016-Apr-20 02:33N 56°09' E 012°28'8 8.3
2016-Apr-20 01:33N 56°16' E 012°20'10 8.3
2016-Apr-20 00:24N 56°25' E 012°12'8 8.7
2016-Apr-19 23:30N 56°32' E 012°05'8 8.4
2016-Apr-19 22:33N 56°39' E 011°60'12 8.9
2016-Apr-19 21:13N 56°50' E 011°52'6 8.5
2016-Apr-19 20:33N 56°54' E 011°45'8 8.4
2016-Apr-19 19:33N 57°02' E 011°37'9 8.5
2016-Apr-19 18:33N 57°09' E 011°29'9 8.9
2016-Apr-19 17:33N 57°17' E 011°22'9 8.7
2016-Apr-19 16:33N 57°24' E 011°14'9 8.6
2016-Apr-19 15:33N 57°31' E 011°04'7 7.0
2016-Apr-19 14:34N 57°35' E 010°53'7 6.8
2016-Apr-19 13:33N 57°41' E 010°48'8 8.5
2016-Apr-19 12:33N 57°47' E 010°37'1010.0
2016-Apr-19 11:33N 57°47' E 010°18'97 8.5
2016-Apr-19 00:10N 57°55' E 007°16'5 8.4
2016-Apr-18 23:33N 57°56' E 007°07'8 7.8
2016-Apr-18 22:33N 57°57' E 006°52'7 7.3
2016-Apr-18 21:33N 58°00' E 006°40'8 7.7
2016-Apr-18 20:33N 58°04' E 006°27'8 8.5
2016-Apr-18 19:33N 58°10' E 006°16'8 8.0
2016-Apr-18 18:33N 58°16' E 006°06'8 7.6
2016-Apr-18 17:33N 58°22' E 005°56'9 7.4
2016-Apr-18 16:18N 58°28' E 005°44'6 7.6
2016-Apr-18 15:33N 58°33' E 005°38'8 8.1
2016-Apr-18 14:33N 58°40' E 005°30'7 7.1
2016-Apr-18 13:33N 58°47' E 005°26'7 6.7
2016-Apr-18 12:33N 58°53' E 005°31'8 8.3
2016-Apr-18 11:33N 59°01' E 005°33'8 8.0
2016-Apr-18 10:33N 59°08' E 005°24'8 7.9
2016-Apr-18 09:33N 59°16' E 005°20'17 8.5
2016-Apr-18 07:30N 59°33' E 005°12'1313.5
2016-Apr-18 06:33N 59°43' E 005°27'6 6.1
2016-Apr-18 05:33N 59°48' E 005°33'6 5.9
2016-Apr-18 04:31N 59°54' E 005°31'236 6.2
2016-Apr-16 14:29N 63°29' E 008°60'7 7.9
2016-Apr-16 13:33N 63°32' E 009°14'8 7.9
2016-Apr-16 12:33N 63°40' E 009°16'72 7.9
2016-Apr-16 03:26N 64°40' E 010°47'7 8.3
2016-Apr-16 02:33N 64°45' E 010°60'9 8.7
2016-Apr-16 01:33N 64°51' E 011°13'8 8.4
2016-Apr-16 00:33N 64°57' E 011°28'9 8.5
2016-Apr-15 23:33N 65°02' E 011°43'9 8.7
2016-Apr-15 22:33N 65°10' E 011°51'9 8.5
2016-Apr-15 21:33N 65°18' E 011°59'48 7.7
2016-Apr-15 15:17N 66°04' E 012°38'  
2016-Apr-11 22:20N 65°20' E 012°01'6 8.3
2016-Apr-11 21:33N 65°14' E 011°55'8 8.3
2016-Apr-11 20:34N 65°06' E 011°49'8 8.1
2016-Apr-11 19:33N 64°60' E 011°37'8 7.9
2016-Apr-11 18:34N 64°55' E 011°23'7 7.3
2016-Apr-11 17:33N 64°50' E 011°10'  

Dump ship's entire track history